UAE6AU YPPH-OMDB
Flight info
| Callsign | UAE6AU |
|---|---|
| Flight time | N/A |
| Altitude | 34000 |
| Route | OPEGA DCT UNDER DCT 27S107E 25S104E DCT POLUM/N0495F360 DCT 16S095E 10S090E 07S087E 05S085E DCT APOVU/N0488F380 DCT AKDOB DCT BIBGO L894 KITAL P570 ITURA M762 VAXAS/N0396F240 M762 MIVEK P574 IMPED |
| Aircraft | A388/J-SADE2E3FGHIJ3J4J5M1RWXY/LB1D1 |
Departure
| Time | N/A |
|---|---|
| Airport | Perth International Airport (YPPH) |
Arrival
| Time | 2026-04-23 19:33 |
|---|---|
| Airport | Dubai International Airport (OMDB) |
| Time | Latitude | Longitude | Altitude | Speed | Heading |
|---|---|---|---|---|---|
| 2026-04-23 18:46 | 22.04949 | 59.01378 | 37886 ft | 436 kts | 325° |
| 2026-04-23 18:46 | 22.07575 | 58.99660 | 37884 ft | 436 kts | 325° |
| 2026-04-23 18:47 | 22.12772 | 58.96260 | 37889 ft | 436 kts | 325° |
| 2026-04-23 18:47 | 22.17924 | 58.92886 | 37884 ft | 437 kts | 325° |
| 2026-04-23 18:48 | 22.23118 | 58.89482 | 37890 ft | 437 kts | 325° |
| 2026-04-23 18:48 | 22.28312 | 58.86074 | 37890 ft | 437 kts | 325° |
| 2026-04-23 18:49 | 22.33511 | 58.82660 | 37894 ft | 437 kts | 325° |
| 2026-04-23 18:49 | 22.38709 | 58.79244 | 37891 ft | 437 kts | 325° |
| 2026-04-23 18:50 | 22.43069 | 58.76377 | 37894 ft | 438 kts | 325° |
| 2026-04-23 18:50 | 22.49104 | 58.72404 | 37899 ft | 438 kts | 325° |
| 2026-04-23 18:51 | 22.54307 | 58.68976 | 37894 ft | 438 kts | 325° |
| 2026-04-23 18:51 | 22.59504 | 58.65548 | 37891 ft | 438 kts | 325° |
| 2026-04-23 18:52 | 22.64699 | 58.62119 | 37900 ft | 438 kts | 325° |
| 2026-04-23 18:52 | 22.69901 | 58.58682 | 37899 ft | 437 kts | 324° |
| 2026-04-23 18:53 | 22.75103 | 58.55244 | 37894 ft | 438 kts | 324° |
| 2026-04-23 18:53 | 22.80295 | 58.51809 | 37896 ft | 437 kts | 324° |
| 2026-04-23 18:54 | 22.85485 | 58.48371 | 37898 ft | 437 kts | 324° |
| 2026-04-23 18:54 | 22.90678 | 58.44929 | 37900 ft | 437 kts | 324° |
| 2026-04-23 18:55 | 22.95827 | 58.41513 | 37886 ft | 436 kts | 324° |
| 2026-04-23 18:55 | 23.01033 | 58.38055 | 37885 ft | 436 kts | 324° |
| 2026-04-23 18:56 | 23.05336 | 58.35199 | 37894 ft | 435 kts | 324° |
| 2026-04-23 18:56 | 23.11371 | 58.31179 | 37885 ft | 436 kts | 324° |
| 2026-04-23 18:57 | 23.16507 | 58.27756 | 37880 ft | 435 kts | 324° |
| 2026-04-23 18:57 | 23.21691 | 58.24299 | 37869 ft | 435 kts | 324° |
| 2026-04-23 18:58 | 23.26815 | 58.20878 | 37859 ft | 435 kts | 324° |
| 2026-04-23 18:58 | 23.31620 | 58.17666 | 37858 ft | 435 kts | 324° |
| 2026-04-23 18:59 | 23.36659 | 58.14035 | 37848 ft | 433 kts | 318° |
| 2026-04-23 18:59 | 23.41068 | 58.09626 | 37854 ft | 430 kts | 310° |
| 2026-04-23 19:00 | 23.44756 | 58.04557 | 37857 ft | 426 kts | 303° |
| 2026-04-23 19:00 | 23.48202 | 57.99296 | 37839 ft | 426 kts | 304° |
| 2026-04-23 19:01 | 23.51664 | 57.94030 | 37851 ft | 427 kts | 303° |
| 2026-04-23 19:01 | 23.55112 | 57.88751 | 37860 ft | 428 kts | 303° |
| 2026-04-23 19:02 | 23.58006 | 57.84314 | 37871 ft | 429 kts | 303° |
| 2026-04-23 19:02 | 23.62154 | 57.78249 | 37876 ft | 430 kts | 306° |
| 2026-04-23 19:03 | 23.65879 | 57.73145 | 37876 ft | 430 kts | 306° |
| 2026-04-23 19:03 | 23.69579 | 57.68008 | 37874 ft | 431 kts | 306° |
| 2026-04-23 19:04 | 23.73266 | 57.62852 | 37875 ft | 431 kts | 306° |
| 2026-04-23 19:04 | 23.76954 | 57.57683 | 37878 ft | 431 kts | 306° |
| 2026-04-23 19:05 | 23.80636 | 57.52517 | 37879 ft | 431 kts | 306° |
| 2026-04-23 19:05 | 23.84314 | 57.47350 | 37875 ft | 431 kts | 306° |
| 2026-04-23 19:06 | 23.87998 | 57.42170 | 37880 ft | 431 kts | 306° |
| 2026-04-23 19:06 | 23.91673 | 57.36997 | 37874 ft | 431 kts | 306° |
| 2026-04-23 19:07 | 23.95348 | 57.31818 | 37871 ft | 431 kts | 305° |
| 2026-04-23 19:07 | 23.99021 | 57.26637 | 37874 ft | 431 kts | 305° |
| 2026-04-23 19:08 | 24.02684 | 57.21466 | 37873 ft | 431 kts | 305° |
| 2026-04-23 19:08 | 24.06353 | 57.16280 | 37873 ft | 430 kts | 305° |
| 2026-04-23 19:08 | 24.08176 | 57.13701 | 37768 ft | 431 kts | 305° |
| 2026-04-23 19:09 | 24.09994 | 57.11128 | 37522 ft | 430 kts | 305° |
| 2026-04-23 19:09 | 24.11836 | 57.08519 | 37270 ft | 431 kts | 305° |
| 2026-04-23 19:09 | 24.13684 | 57.05901 | 37068 ft | 431 kts | 305° |
| 2026-04-23 19:09 | 24.15493 | 57.03336 | 36960 ft | 433 kts | 305° |
| 2026-04-23 19:10 | 24.17334 | 57.00724 | 36722 ft | 436 kts | 305° |
| 2026-04-23 19:10 | 24.19177 | 56.98109 | 36483 ft | 437 kts | 305° |
| 2026-04-23 19:10 | 24.21052 | 56.95447 | 35924 ft | 438 kts | 305° |
| 2026-04-23 19:10 | 24.22926 | 56.92785 | 34827 ft | 447 kts | 305° |
| 2026-04-23 19:11 | 24.24855 | 56.90040 | 33677 ft | 458 kts | 306° |
| 2026-04-23 19:11 | 24.26804 | 56.87269 | 32686 ft | 460 kts | 306° |
| 2026-04-23 19:11 | 24.28735 | 56.84524 | 32363 ft | 448 kts | 306° |
| 2026-04-23 19:11 | 24.30610 | 56.81859 | 31974 ft | 438 kts | 306° |
| 2026-04-23 19:12 | 24.31843 | 56.80105 | 31589 ft | 435 kts | 306° |
| 2026-04-23 19:12 | 24.34296 | 56.76608 | 30799 ft | 430 kts | 306° |
| 2026-04-23 19:12 | 24.36111 | 56.74019 | 30237 ft | 426 kts | 306° |
| 2026-04-23 19:12 | 24.37914 | 56.71447 | 29640 ft | 423 kts | 306° |
| 2026-04-23 19:13 | 24.39698 | 56.68900 | 28981 ft | 419 kts | 306° |
| 2026-04-23 19:13 | 24.41467 | 56.66373 | 28326 ft | 416 kts | 306° |
| 2026-04-23 19:13 | 24.43228 | 56.63866 | 27678 ft | 413 kts | 307° |
| 2026-04-23 19:13 | 24.45142 | 56.61520 | 27033 ft | 412 kts | 311° |
| 2026-04-23 19:14 | 24.47097 | 56.59263 | 26414 ft | 409 kts | 311° |
| 2026-04-23 19:14 | 24.49056 | 56.56980 | 25782 ft | 407 kts | 311° |
| 2026-04-23 19:14 | 24.50983 | 56.54723 | 25184 ft | 405 kts | 311° |
| 2026-04-23 19:14 | 24.52902 | 56.52476 | 24598 ft | 402 kts | 311° |
| 2026-04-23 19:15 | 24.54812 | 56.50239 | 24005 ft | 400 kts | 311° |
| 2026-04-23 19:15 | 24.56713 | 56.48011 | 23450 ft | 398 kts | 311° |
| 2026-04-23 19:15 | 24.58599 | 56.45801 | 22818 ft | 396 kts | 311° |
| 2026-04-23 19:15 | 24.60473 | 56.43605 | 22216 ft | 392 kts | 311° |
| 2026-04-23 19:16 | 24.62332 | 56.41426 | 21640 ft | 389 kts | 311° |
| 2026-04-23 19:16 | 24.64174 | 56.39266 | 21075 ft | 385 kts | 311° |
| 2026-04-23 19:16 | 24.66000 | 56.37123 | 20510 ft | 382 kts | 311° |
| 2026-04-23 19:17 | 24.69606 | 56.32890 | 19422 ft | 376 kts | 312° |
| 2026-04-23 19:17 | 24.71572 | 56.31056 | 18883 ft | 376 kts | 323° |
| 2026-04-23 19:17 | 24.73874 | 56.29695 | 18369 ft | 377 kts | 335° |
| 2026-04-23 19:17 | 24.76374 | 56.28849 | 17785 ft | 376 kts | 343° |
| 2026-04-23 19:18 | 24.78904 | 56.28121 | 17153 ft | 374 kts | 342° |
| 2026-04-23 19:18 | 24.81413 | 56.27370 | 16535 ft | 373 kts | 341° |
| 2026-04-23 19:18 | 24.83905 | 56.26617 | 15964 ft | 370 kts | 342° |
| 2026-04-23 19:18 | 24.86313 | 56.25678 | 15342 ft | 365 kts | 328° |
| 2026-04-23 19:19 | 24.89698 | 56.21781 | 14206 ft | 352 kts | 296° |
| 2026-04-23 19:19 | 24.90874 | 56.19423 | 13646 ft | 351 kts | 296° |
| 2026-04-23 19:20 | 24.92627 | 56.14737 | 12485 ft | 345 kts | 288° |
| 2026-04-23 19:20 | 24.93471 | 56.12277 | 11917 ft | 343 kts | 288° |
| 2026-04-23 19:20 | 24.94314 | 56.09829 | 11373 ft | 340 kts | 288° |
| 2026-04-23 19:20 | 24.95154 | 56.07394 | 10796 ft | 339 kts | 289° |
| 2026-04-23 19:21 | 24.95984 | 56.04993 | 10495 ft | 330 kts | 289° |
| 2026-04-23 19:21 | 24.97548 | 56.00467 | 10252 ft | 303 kts | 288° |
| 2026-04-23 19:21 | 24.98289 | 55.98319 | 9876 ft | 298 kts | 288° |
| 2026-04-23 19:22 | 24.99028 | 55.96166 | 9131 ft | 301 kts | 289° |
| 2026-04-23 19:22 | 24.99771 | 55.94000 | 8393 ft | 303 kts | 289° |
| 2026-04-23 19:22 | 25.01241 | 55.89729 | 7354 ft | 292 kts | 289° |
| 2026-04-23 19:23 | 25.01953 | 55.87658 | 6864 ft | 286 kts | 290° |
| 2026-04-23 19:23 | 25.02652 | 55.85625 | 6383 ft | 281 kts | 290° |
| 2026-04-23 19:23 | 25.03334 | 55.83636 | 6068 ft | 274 kts | 290° |
| 2026-04-23 19:24 | 25.04228 | 55.81033 | 5533 ft | 274 kts | 290° |
| 2026-04-23 19:24 | 25.04515 | 55.80194 | 5361 ft | 274 kts | 290° |
| 2026-04-23 19:25 | 25.05514 | 55.77281 | 4794 ft | 274 kts | 290° |
| 2026-04-23 19:25 | 25.06854 | 55.73366 | 4294 ft | 274 kts | 291° |
| 2026-04-23 19:26 | 25.08206 | 55.69415 | 4004 ft | 273 kts | 291° |
| 2026-04-23 19:26 | 25.08880 | 55.67445 | 3883 ft | 275 kts | 291° |
| 2026-04-23 19:27 | 25.10288 | 55.63670 | 3591 ft | 257 kts | 298° |
| 2026-04-23 19:27 | 25.12823 | 55.58954 | 3248 ft | 224 kts | 303° |
| 2026-04-23 19:28 | 25.14146 | 55.56559 | 3014 ft | 207 kts | 302° |
| 2026-04-23 19:28 | 25.15582 | 55.53978 | 2736 ft | 196 kts | 304° |
| 2026-04-23 19:29 | 25.16298 | 55.52697 | 2604 ft | 196 kts | 303° |
| 2026-04-23 19:29 | 25.17698 | 55.50136 | 2247 ft | 195 kts | 304° |
| 2026-04-23 19:30 | 25.19013 | 55.47774 | 1739 ft | 161 kts | 306° |
| 2026-04-23 19:30 | 25.19570 | 55.46759 | 1515 ft | 149 kts | 306° |
| 2026-04-23 19:30 | 25.20644 | 55.44813 | 1152 ft | 148 kts | 306° |
| 2026-04-23 19:31 | 25.21187 | 55.43848 | 971 ft | 147 kts | 305° |
| 2026-04-23 19:31 | 25.21694 | 55.42924 | 792 ft | 140 kts | 303° |
| 2026-04-23 19:31 | 25.22199 | 55.41996 | 634 ft | 140 kts | 303° |
| 2026-04-23 19:31 | 25.22707 | 55.41085 | 426 ft | 139 kts | 303° |
| 2026-04-23 19:32 | 25.23207 | 55.40183 | 259 ft | 138 kts | 302° |
| 2026-04-23 19:32 | 25.23707 | 55.39282 | 87 ft | 138 kts | 303° |
| 2026-04-23 19:32 | 25.24140 | 55.38508 | 54 ft | 99 kts | 301° |
| 2026-04-23 19:32 | 25.24447 | 55.37956 | 45 ft | 70 kts | 301° |
| 2026-04-23 19:33 | 25.24664 | 55.37563 | 41 ft | 52 kts | 302° |
| 2026-04-23 19:33 | 25.24779 | 55.37289 | 35 ft | 31 kts | 281° |
| 2026-04-23 19:33 | 25.24791 | 55.37020 | 31 ft | 9 kts | 269° |
| 2026-04-23 19:34 | 25.24765 | 55.36958 | 30 ft | 11 kts | 215° |
| 2026-04-23 19:34 | 25.24686 | 55.36901 | 30 ft | 16 kts | 212° |
| 2026-04-23 19:34 | 25.24483 | 55.36768 | 30 ft | 17 kts | 211° |
| 2026-04-23 19:35 | 25.24419 | 55.36728 | 30 ft | 6 kts | 198° |
| 2026-04-23 19:35 | 25.24378 | 55.36739 | 31 ft | 8 kts | 133° |
| 2026-04-23 19:35 | 25.24340 | 55.36803 | 32 ft | 12 kts | 122° |
| 2026-04-23 19:35 | 25.24292 | 55.36888 | 34 ft | 13 kts | 122° |
| 2026-04-23 19:36 | 25.24243 | 55.36975 | 36 ft | 11 kts | 121° |
| 2026-04-23 19:36 | 25.24222 | 55.37012 | 37 ft | 1 kts | 121° |
| 2026-04-23 19:36 | 25.24215 | 55.37027 | 37 ft | 1 kts | 107° |
| 2026-04-23 19:36 | 25.24214 | 55.37035 | 37 ft | 1 kts | 81° |
| 2026-04-23 19:37 | 25.24220 | 55.37049 | 37 ft | 3 kts | 50° |
| 2026-04-23 19:37 | 25.24240 | 55.37068 | 37 ft | 3 kts | 32° |
| 2026-04-23 19:37 | 25.24260 | 55.37081 | 37 ft | 4 kts | 31° |
| 2026-04-23 19:37 | 25.24278 | 55.37093 | 37 ft | 1 kts | 31° |
| 2026-04-23 19:38 | 25.24284 | 55.37097 | 37 ft | 0 kts | 31° |